Broadbent, Oregon
Current Conditions -  °F | °C
As of 1:35 PM on Friday 28 Nov 2014 (Local Time) from KOTH Reporting Station
Overcast Overcast  
Wind Chill: 61°   Ceiling: 1700
Heat Index: 61°   Visibility: 10mi
Dew Point: 61°   Wind: 13mph
Humidity: 100%   Direction: 230°SW
Pressure: 29.68"   Gusts: 29mph
Location:  43.01°N, 124.15°W
Report Text: KOTH 282135Z 23011G25KT 10SM OVC017 16/16 A2968 RMK AO1
Loading
Personal Weather Stations






























Interactive Weather Map New forecast layout! Learn more

10-Day Weather Forecast

Advertisements
Track Severe Weather on mobile